sensor_id;sensor_type;location;lat;lon;timestamp;P1;durP1;ratioP1;P2;durP2;ratioP2
50733;SDS011;36701;51.798;19.474;2023-04-24T02:00:21;11.38;;;6.93;;
50733;SDS011;36701;51.798;19.474;2023-04-24T02:02:48;9.95;;;6.43;;
50733;SDS011;36701;51.798;19.474;2023-04-24T02:05:14;17.60;;;7.93;;
50733;SDS011;36701;51.798;19.474;2023-04-24T02:07:41;9.82;;;6.15;;
50733;SDS011;36701;51.798;19.474;2023-04-24T02:10:08;7.78;;;6.62;;
50733;SDS011;36701;51.798;19.474;2023-04-24T02:12:35;11.45;;;6.60;;
50733;SDS011;36701;51.798;19.474;2023-04-24T02:15:01;15.35;;;5.72;;
50733;SDS011;36701;51.798;19.474;2023-04-24T02:17:28;10.85;;;5.90;;
50733;SDS011;36701;51.798;19.474;2023-04-24T02:19:54;15.43;;;6.82;;
50733;SDS011;36701;51.798;19.474;2023-04-24T02:22:20;11.90;;;5.55;;
50733;SDS011;36701;51.798;19.474;2023-04-24T02:24:46;13.02;;;6.60;;
50733;SDS011;36701;51.798;19.474;2023-04-24T02:27:14;15.45;;;5.93;;
50733;SDS011;36701;51.798;19.474;2023-04-24T02:29:41;9.30;;;6.03;;
50733;SDS011;36701;51.798;19.474;2023-04-24T02:32:07;12.77;;;6.30;;
50733;SDS011;36701;51.798;19.474;2023-04-24T02:34:37;11.63;;;5.78;;
50733;SDS011;36701;51.798;19.474;2023-04-24T02:37:04;10.23;;;5.45;;
50733;SDS011;36701;51.798;19.474;2023-04-24T02:39:29;11.98;;;6.15;;
50733;SDS011;36701;51.798;19.474;2023-04-24T02:41:56;11.35;;;5.90;;
50733;SDS011;36701;51.798;19.474;2023-04-24T02:44:22;7.50;;;4.90;;
50733;SDS011;36701;51.798;19.474;2023-04-24T02:46:49;11.95;;;6.35;;
50733;SDS011;36701;51.798;19.474;2023-04-24T02:49:15;10.48;;;5.72;;
50733;SDS011;36701;51.798;19.474;2023-04-24T02:51:42;12.75;;;5.85;;
50733;SDS011;36701;51.798;19.474;2023-04-24T02:54:08;13.18;;;6.05;;
50733;SDS011;36701;51.798;19.474;2023-04-24T02:56:36;17.35;;;6.43;;
50733;SDS011;36701;51.798;19.474;2023-04-24T02:59:02;10.30;;;5.97;;
50733;SDS011;36701;51.798;19.474;2023-04-24T03:01:29;8.75;;;6.32;;
50733;SDS011;36701;51.798;19.474;2023-04-24T03:03:55;11.70;;;6.10;;
50733;SDS011;36701;51.798;19.474;2023-04-24T03:06:22;13.57;;;5.87;;
50733;SDS011;36701;51.798;19.474;2023-04-24T03:08:48;12.68;;;7.45;;
50733;SDS011;36701;51.798;19.474;2023-04-24T03:11:14;13.32;;;6.62;;
50733;SDS011;36701;51.798;19.474;2023-04-24T03:13:41;12.10;;;5.95;;
50733;SDS011;36701;51.798;19.474;2023-04-24T03:16:07;11.40;;;6.10;;
50733;SDS011;36701;51.798;19.474;2023-04-24T03:18:33;12.27;;;6.18;;
50733;SDS011;36701;51.798;19.474;2023-04-24T03:21:00;13.20;;;6.07;;
50733;SDS011;36701;51.798;19.474;2023-04-24T03:23:27;13.13;;;6.82;;
50733;SDS011;36701;51.798;19.474;2023-04-24T03:25:53;12.80;;;7.05;;
50733;SDS011;36701;51.798;19.474;2023-04-24T03:28:20;10.60;;;6.03;;
50733;SDS011;36701;51.798;19.474;2023-04-24T03:30:47;17.02;;;7.62;;
50733;SDS011;36701;51.798;19.474;2023-04-24T03:33:14;16.75;;;7.22;;
50733;SDS011;36701;51.798;19.474;2023-04-24T03:35:42;14.15;;;7.60;;
50733;SDS011;36701;51.798;19.474;2023-04-24T03:38:08;14.10;;;7.72;;
50733;SDS011;36701;51.798;19.474;2023-04-24T03:43:06;12.02;;;7.45;;
50733;SDS011;36701;51.798;19.474;2023-04-24T03:45:33;14.80;;;7.60;;
50733;SDS011;36701;51.798;19.474;2023-04-24T03:47:58;10.57;;;7.25;;
50733;SDS011;36701;51.798;19.474;2023-04-24T03:50:25;11.18;;;7.30;;
50733;SDS011;36701;51.798;19.474;2023-04-24T03:52:52;15.95;;;7.32;;
50733;SDS011;36701;51.798;19.474;2023-04-24T03:55:20;13.75;;;7.47;;
50733;SDS011;36701;51.798;19.474;2023-04-24T03:57:46;14.05;;;7.60;;
50733;SDS011;36701;51.798;19.474;2023-04-24T04:00:16;19.10;;;7.50;;
50733;SDS011;36701;51.798;19.474;2023-04-24T04:02:44;9.40;;;7.00;;
50733;SDS011;36701;51.798;19.474;2023-04-24T04:05:11;11.90;;;7.45;;
50733;SDS011;36701;51.798;19.474;2023-04-24T04:07:37;15.90;;;6.25;;
50733;SDS011;36701;51.798;19.474;2023-04-24T04:10:04;12.25;;;6.60;;
50733;SDS011;36701;51.798;19.474;2023-04-24T04:12:30;13.82;;;7.07;;
50733;SDS011;36701;51.798;19.474;2023-04-24T04:14:56;18.35;;;7.15;;
50733;SDS011;36701;51.798;19.474;2023-04-24T04:17:23;9.52;;;6.95;;
50733;SDS011;36701;51.798;19.474;2023-04-24T04:19:56;15.10;;;6.53;;
50733;SDS011;36701;51.798;19.474;2023-04-24T04:22:23;18.98;;;6.78;;
50733;SDS011;36701;51.798;19.474;2023-04-24T04:24:50;8.70;;;6.35;;
50733;SDS011;36701;51.798;19.474;2023-04-24T04:27:19;13.73;;;6.50;;
50733;SDS011;36701;51.798;19.474;2023-04-24T04:29:48;13.73;;;6.75;;
50733;SDS011;36701;51.798;19.474;2023-04-24T04:32:21;11.55;;;7.18;;
50733;SDS011;36701;51.798;19.474;2023-04-24T04:34:47;15.25;;;6.80;;
50733;SDS011;36701;51.798;19.474;2023-04-24T04:37:15;12.37;;;7.35;;
50733;SDS011;36701;51.798;19.474;2023-04-24T04:39:42;15.15;;;7.72;;
50733;SDS011;36701;51.798;19.474;2023-04-24T04:42:09;21.02;;;7.03;;
50733;SDS011;36701;51.798;19.474;2023-04-24T04:44:35;12.50;;;6.82;;
50733;SDS011;36701;51.798;19.474;2023-04-24T04:47:02;13.15;;;7.35;;
50733;SDS011;36701;51.798;19.474;2023-04-24T04:49:32;13.57;;;7.28;;
50733;SDS011;36701;51.798;19.474;2023-04-24T04:51:58;21.05;;;7.40;;
50733;SDS011;36701;51.798;19.474;2023-04-24T04:54:24;15.68;;;8.35;;
50733;SDS011;36701;51.798;19.474;2023-04-24T04:56:51;18.73;;;7.55;;
50733;SDS011;36701;51.798;19.474;2023-04-24T04:59:17;15.27;;;7.62;;
50733;SDS011;36701;51.798;19.474;2023-04-24T05:01:44;18.10;;;6.82;;
50733;SDS011;36701;51.798;19.474;2023-04-24T05:04:11;21.95;;;8.50;;
50733;SDS011;36701;51.798;19.474;2023-04-24T05:06:37;19.45;;;6.20;;
50733;SDS011;36701;51.798;19.474;2023-04-24T05:09:04;18.30;;;6.75;;
50733;SDS011;36701;51.798;19.474;2023-04-24T05:11:31;17.80;;;8.20;;
50733;SDS011;36701;51.798;19.474;2023-04-24T05:13:58;14.32;;;7.10;;
50733;SDS011;36701;51.798;19.474;2023-04-24T05:16:24;25.15;;;8.32;;
50733;SDS011;36701;51.798;19.474;2023-04-24T05:18:52;16.73;;;7.35;;
50733;SDS011;36701;51.798;19.474;2023-04-24T05:21:19;24.50;;;7.12;;
50733;SDS011;36701;51.798;19.474;2023-04-24T05:23:45;20.67;;;7.40;;
50733;SDS011;36701;51.798;19.474;2023-04-24T05:26:13;22.67;;;7.10;;
50733;SDS011;36701;51.798;19.474;2023-04-24T05:28:40;20.15;;;7.75;;
50733;SDS011;36701;51.798;19.474;2023-04-24T05:31:07;19.80;;;6.70;;
50733;SDS011;36701;51.798;19.474;2023-04-24T05:33:33;13.05;;;7.32;;
50733;SDS011;36701;51.798;19.474;2023-04-24T05:36:00;12.32;;;7.45;;
50733;SDS011;36701;51.798;19.474;2023-04-24T05:38:26;20.80;;;6.78;;
50733;SDS011;36701;51.798;19.474;2023-04-24T05:40:53;14.05;;;6.40;;
50733;SDS011;36701;51.798;19.474;2023-04-24T05:43:19;12.52;;;6.37;;
50733;SDS011;36701;51.798;19.474;2023-04-24T05:45:49;21.62;;;6.43;;
50733;SDS011;36701;51.798;19.474;2023-04-24T05:48:17;14.75;;;5.15;;
50733;SDS011;36701;51.798;19.474;2023-04-24T05:50:43;15.63;;;6.25;;
50733;SDS011;36701;51.798;19.474;2023-04-24T05:53:10;11.63;;;4.68;;
50733;SDS011;36701;51.798;19.474;2023-04-24T05:55:37;22.45;;;6.80;;
50733;SDS011;36701;51.798;19.474;2023-04-24T05:58:03;10.75;;;5.57;;
50733;SDS011;36701;51.798;19.474;2023-04-24T06:00:30;20.50;;;4.57;;
50733;SDS011;36701;51.798;19.474;2023-04-24T06:02:57;11.80;;;5.87;;
50733;SDS011;36701;51.798;19.474;2023-04-24T06:05:23;20.70;;;5.75;;
50733;SDS011;36701;51.798;19.474;2023-04-24T06:07:51;13.45;;;4.85;;
50733;SDS011;36701;51.798;19.474;2023-04-24T06:10:21;28.05;;;5.30;;
50733;SDS011;36701;51.798;19.474;2023-04-24T06:12:49;32.35;;;5.53;;
50733;SDS011;36701;51.798;19.474;2023-04-24T06:15:16;11.80;;;4.85;;
50733;SDS011;36701;51.798;19.474;2023-04-24T06:17:44;13.77;;;4.57;;
50733;SDS011;36701;51.798;19.474;2023-04-24T06:20:13;18.48;;;4.93;;
50733;SDS011;36701;51.798;19.474;2023-04-24T06:22:39;18.52;;;4.90;;
50733;SDS011;36701;51.798;19.474;2023-04-24T06:25:06;21.35;;;4.32;;
50733;SDS011;36701;51.798;19.474;2023-04-24T06:27:33;20.52;;;5.40;;
50733;SDS011;36701;51.798;19.474;2023-04-24T06:29:59;9.05;;;4.85;;
50733;SDS011;36701;51.798;19.474;2023-04-24T06:32:26;16.50;;;4.22;;
50733;SDS011;36701;51.798;19.474;2023-04-24T06:34:53;16.08;;;4.82;;
50733;SDS011;36701;51.798;19.474;2023-04-24T06:37:21;11.98;;;4.37;;
50733;SDS011;36701;51.798;19.474;2023-04-24T06:39:48;8.38;;;4.03;;
50733;SDS011;36701;51.798;19.474;2023-04-24T06:42:14;9.43;;;3.80;;
50733;SDS011;36701;51.798;19.474;2023-04-24T06:44:41;15.10;;;5.07;;
50733;SDS011;36701;51.798;19.474;2023-04-24T06:47:09;6.20;;;4.05;;
50733;SDS011;36701;51.798;19.474;2023-04-24T06:49:36;18.17;;;4.18;;
50733;SDS011;36701;51.798;19.474;2023-04-24T06:52:02;7.97;;;3.15;;
50733;SDS011;36701;51.798;19.474;2023-04-24T06:54:29;9.70;;;3.87;;
50733;SDS011;36701;51.798;19.474;2023-04-24T06:56:55;14.02;;;3.75;;
50733;SDS011;36701;51.798;19.474;2023-04-24T06:59:23;9.05;;;3.05;;
50733;SDS011;36701;51.798;19.474;2023-04-24T07:01:50;8.00;;;3.42;;
50733;SDS011;36701;51.798;19.474;2023-04-24T07:04:17;12.23;;;3.72;;
50733;SDS011;36701;51.798;19.474;2023-04-24T07:06:44;4.65;;;3.72;;
50733;SDS011;36701;51.798;19.474;2023-04-24T07:09:12;15.07;;;3.37;;
50733;SDS011;36701;51.798;19.474;2023-04-24T07:11:39;9.23;;;3.15;;
50733;SDS011;36701;51.798;19.474;2023-04-24T07:14:07;5.72;;;3.03;;
50733;SDS011;36701;51.798;19.474;2023-04-24T07:16:33;11.52;;;2.83;;
50733;SDS011;36701;51.798;19.474;2023-04-24T07:18:59;10.20;;;4.45;;
50733;SDS011;36701;51.798;19.474;2023-04-24T07:21:25;10.15;;;3.50;;
50733;SDS011;36701;51.798;19.474;2023-04-24T07:23:53;5.45;;;3.03;;
50733;SDS011;36701;51.798;19.474;2023-04-24T07:26:19;6.20;;;3.25;;
50733;SDS011;36701;51.798;19.474;2023-04-24T07:28:46;14.23;;;4.32;;
50733;SDS011;36701;51.798;19.474;2023-04-24T07:31:12;3.35;;;2.60;;
50733;SDS011;36701;51.798;19.474;2023-04-24T07:33:38;9.75;;;3.65;;
50733;SDS011;36701;51.798;19.474;2023-04-24T07:36:05;26.20;;;3.90;;
50733;SDS011;36701;51.798;19.474;2023-04-24T07:38:31;5.07;;;3.15;;
50733;SDS011;36701;51.798;19.474;2023-04-24T07:40:57;16.37;;;3.08;;
50733;SDS011;36701;51.798;19.474;2023-04-24T07:43:23;18.65;;;4.32;;
50733;SDS011;36701;51.798;19.474;2023-04-24T07:46:04;7.32;;;3.22;;
50733;SDS011;36701;51.798;19.474;2023-04-24T07:48:30;8.82;;;3.62;;
50733;SDS011;36701;51.798;19.474;2023-04-24T07:50:56;12.70;;;3.12;;
50733;SDS011;36701;51.798;19.474;2023-04-24T07:53:22;8.98;;;2.70;;
50733;SDS011;36701;51.798;19.474;2023-04-24T07:55:48;13.38;;;3.50;;
50733;SDS011;36701;51.798;19.474;2023-04-24T07:58:14;3.50;;;2.83;;
50733;SDS011;36701;51.798;19.474;2023-04-24T08:00:41;3.12;;;2.83;;
50733;SDS011;36701;51.798;19.474;2023-04-24T08:03:07;4.20;;;2.90;;
50733;SDS011;36701;51.798;19.474;2023-04-24T08:05:33;9.68;;;2.78;;
50733;SDS011;36701;51.798;19.474;2023-04-24T08:07:59;6.65;;;2.75;;
50733;SDS011;36701;51.798;19.474;2023-04-24T08:10:26;9.57;;;3.22;;
50733;SDS011;36701;51.798;19.474;2023-04-24T08:12:52;4.37;;;2.95;;
50733;SDS011;36701;51.798;19.474;2023-04-24T08:15:18;5.07;;;2.83;;
50733;SDS011;36701;51.798;19.474;2023-04-24T08:17:44;6.70;;;3.33;;
50733;SDS011;36701;51.798;19.474;2023-04-24T08:20:11;6.78;;;2.75;;
50733;SDS011;36701;51.798;19.474;2023-04-24T08:22:40;11.18;;;3.08;;
50733;SDS011;36701;51.798;19.474;2023-04-24T08:25:07;5.22;;;2.87;;
50733;SDS011;36701;51.798;19.474;2023-04-24T08:27:33;4.82;;;3.85;;
50733;SDS011;36701;51.798;19.474;2023-04-24T08:29:59;3.83;;;3.08;;
50733;SDS011;36701;51.798;19.474;2023-04-24T08:32:26;9.48;;;3.60;;
50733;SDS011;36701;51.798;19.474;2023-04-24T08:34:58;4.22;;;2.80;;
50733;SDS011;36701;51.798;19.474;2023-04-24T08:37:25;6.40;;;3.55;;
50733;SDS011;36701;51.798;19.474;2023-04-24T08:39:52;5.82;;;2.97;;
50733;SDS011;36701;51.798;19.474;2023-04-24T08:42:18;6.18;;;2.72;;
50733;SDS011;36701;51.798;19.474;2023-04-24T08:44:45;4.55;;;2.72;;
50733;SDS011;36701;51.798;19.474;2023-04-24T08:47:11;4.20;;;2.72;;
50733;SDS011;36701;51.798;19.474;2023-04-24T08:49:38;3.50;;;2.90;;
50733;SDS011;36701;51.798;19.474;2023-04-24T08:52:06;11.35;;;2.92;;
50733;SDS011;36701;51.798;19.474;2023-04-24T08:54:36;3.05;;;2.78;;
50733;SDS011;36701;51.798;19.474;2023-04-24T08:57:02;11.82;;;3.03;;
50733;SDS011;36701;51.798;19.474;2023-04-24T08:59:32;6.80;;;3.37;;
50733;SDS011;36701;51.798;19.474;2023-04-24T09:01:59;15.30;;;3.15;;
50733;SDS011;36701;51.798;19.474;2023-04-24T09:04:32;3.45;;;2.80;;
50733;SDS011;36701;51.798;19.474;2023-04-24T09:06:59;3.58;;;2.70;;
50733;SDS011;36701;51.798;19.474;2023-04-24T09:09:25;3.72;;;3.37;;
50733;SDS011;36701;51.798;19.474;2023-04-24T09:11:52;9.75;;;2.83;;
50733;SDS011;36701;51.798;19.474;2023-04-24T09:14:21;2.85;;;2.65;;
50733;SDS011;36701;51.798;19.474;2023-04-24T09:16:49;5.43;;;2.47;;
50733;SDS011;36701;51.798;19.474;2023-04-24T09:19:15;8.13;;;2.70;;
50733;SDS011;36701;51.798;19.474;2023-04-24T09:21:41;5.15;;;3.53;;
50733;SDS011;36701;51.798;19.474;2023-04-24T09:24:17;9.35;;;2.97;;
50733;SDS011;36701;51.798;19.474;2023-04-24T09:26:44;4.30;;;3.45;;
50733;SDS011;36701;51.798;19.474;2023-04-24T09:29:16;6.55;;;2.58;;
50733;SDS011;36701;51.798;19.474;2023-04-24T09:31:42;9.27;;;3.30;;
50733;SDS011;36701;51.798;19.474;2023-04-24T09:34:09;3.95;;;2.67;;
50733;SDS011;36701;51.798;19.474;2023-04-24T09:36:36;4.55;;;3.42;;
50733;SDS011;36701;51.798;19.474;2023-04-24T09:39:05;3.60;;;3.20;;
50733;SDS011;36701;51.798;19.474;2023-04-24T09:41:34;6.65;;;3.17;;
50733;SDS011;36701;51.798;19.474;2023-04-24T09:44:13;9.30;;;3.30;;
50733;SDS011;36701;51.798;19.474;2023-04-24T09:46:59;8.15;;;2.85;;
50733;SDS011;36701;51.798;19.474;2023-04-24T09:49:26;6.60;;;2.87;;
50733;SDS011;36701;51.798;19.474;2023-04-24T09:52:02;15.00;;;3.95;;
50733;SDS011;36701;51.798;19.474;2023-04-24T09:54:35;5.43;;;2.85;;
50733;SDS011;36701;51.798;19.474;2023-04-24T09:57:02;5.22;;;3.40;;
50733;SDS011;36701;51.798;19.474;2023-04-24T09:59:29;4.43;;;3.30;;
50733;SDS011;36701;51.798;19.474;2023-04-24T10:01:55;7.30;;;3.28;;
50733;SDS011;36701;51.798;19.474;2023-04-24T10:04:23;7.03;;;3.15;;
50733;SDS011;36701;51.798;19.474;2023-04-24T10:06:50;3.15;;;2.50;;
50733;SDS011;36701;51.798;19.474;2023-04-24T10:09:17;12.48;;;3.37;;
50733;SDS011;36701;51.798;19.474;2023-04-24T10:11:45;6.82;;;3.10;;
50733;SDS011;36701;51.798;19.474;2023-04-24T10:14:12;4.03;;;3.08;;
50733;SDS011;36701;51.798;19.474;2023-04-24T10:16:39;6.03;;;2.92;;
50733;SDS011;36701;51.798;19.474;2023-04-24T10:19:07;7.05;;;2.62;;
50733;SDS011;36701;51.798;19.474;2023-04-24T10:21:33;5.30;;;3.50;;
50733;SDS011;36701;51.798;19.474;2023-04-24T10:24:00;6.43;;;3.25;;
50733;SDS011;36701;51.798;19.474;2023-04-24T10:26:29;14.70;;;3.17;;
50733;SDS011;36701;51.798;19.474;2023-04-24T10:28:56;4.12;;;2.72;;
50733;SDS011;36701;51.798;19.474;2023-04-24T10:31:22;5.32;;;2.30;;
50733;SDS011;36701;51.798;19.474;2023-04-24T10:33:49;3.60;;;2.60;;
50733;SDS011;36701;51.798;19.474;2023-04-24T10:36:15;12.10;;;3.12;;
50733;SDS011;36701;51.798;19.474;2023-04-24T10:38:42;8.40;;;3.55;;
50733;SDS011;36701;51.798;19.474;2023-04-24T10:41:10;20.48;;;3.65;;
50733;SDS011;36701;51.798;19.474;2023-04-24T10:43:42;15.48;;;3.75;;
50733;SDS011;36701;51.798;19.474;2023-04-24T10:46:08;13.68;;;3.25;;
50733;SDS011;36701;51.798;19.474;2023-04-24T10:48:41;7.65;;;3.10;;
50733;SDS011;36701;51.798;19.474;2023-04-24T10:51:10;3.60;;;3.00;;
50733;SDS011;36701;51.798;19.474;2023-04-24T10:53:37;3.80;;;2.95;;
50733;SDS011;36701;51.798;19.474;2023-04-24T10:56:04;6.30;;;3.80;;
50733;SDS011;36701;51.798;19.474;2023-04-24T10:58:38;6.90;;;3.33;;
50733;SDS011;36701;51.798;19.474;2023-04-24T11:01:06;13.73;;;4.90;;
50733;SDS011;36701;51.798;19.474;2023-04-24T11:03:33;13.05;;;3.95;;
50733;SDS011;36701;51.798;19.474;2023-04-24T11:06:03;11.48;;;3.30;;
50733;SDS011;36701;51.798;19.474;2023-04-24T11:10:57;10.77;;;3.87;;
50733;SDS011;36701;51.798;19.474;2023-04-24T11:13:24;11.12;;;2.72;;
50733;SDS011;36701;51.798;19.474;2023-04-24T11:18:37;7.12;;;4.60;;
50733;SDS011;36701;51.798;19.474;2023-04-24T11:21:09;6.22;;;3.85;;
50733;SDS011;36701;51.798;19.474;2023-04-24T11:23:36;11.95;;;3.58;;
50733;SDS011;36701;51.798;19.474;2023-04-24T11:26:21;9.80;;;5.30;;
50733;SDS011;36701;51.798;19.474;2023-04-24T11:28:49;9.20;;;3.60;;
50733;SDS011;36701;51.798;19.474;2023-04-24T11:31:34;17.23;;;4.37;;
50733;SDS011;36701;51.798;19.474;2023-04-24T11:36:34;6.07;;;3.42;;
50733;SDS011;36701;51.798;19.474;2023-04-24T11:39:01;5.97;;;3.20;;
50733;SDS011;36701;51.798;19.474;2023-04-24T11:41:27;7.00;;;3.58;;
50733;SDS011;36701;51.798;19.474;2023-04-24T11:43:54;3.47;;;3.17;;
50733;SDS011;36701;51.798;19.474;2023-04-24T11:46:21;16.85;;;4.00;;
50733;SDS011;36701;51.798;19.474;2023-04-24T11:48:47;5.97;;;3.87;;
50733;SDS011;36701;51.798;19.474;2023-04-24T11:51:14;3.87;;;3.47;;
50733;SDS011;36701;51.798;19.474;2023-04-24T11:53:40;3.75;;;3.10;;
50733;SDS011;36701;51.798;19.474;2023-04-24T11:56:08;8.25;;;3.12;;
50733;SDS011;36701;51.798;19.474;2023-04-24T11:58:35;6.12;;;3.03;;
50733;SDS011;36701;51.798;19.474;2023-04-24T12:01:03;12.77;;;2.83;;
50733;SDS011;36701;51.798;19.474;2023-04-24T12:03:30;7.05;;;3.92;;
50733;SDS011;36701;51.798;19.474;2023-04-24T12:06:14;4.32;;;2.97;;
50733;SDS011;36701;51.798;19.474;2023-04-24T12:08:41;2.80;;;2.60;;
50733;SDS011;36701;51.798;19.474;2023-04-24T12:11:07;9.07;;;3.42;;
50733;SDS011;36701;51.798;19.474;2023-04-24T12:13:34;10.20;;;3.17;;
50733;SDS011;36701;51.798;19.474;2023-04-24T12:16:03;16.62;;;3.50;;
50733;SDS011;36701;51.798;19.474;2023-04-24T12:18:31;7.03;;;2.90;;
50733;SDS011;36701;51.798;19.474;2023-04-24T12:21:14;6.78;;;2.95;;
50733;SDS011;36701;51.798;19.474;2023-04-24T12:23:42;7.87;;;3.10;;
50733;SDS011;36701;51.798;19.474;2023-04-24T12:26:08;12.93;;;3.47;;
50733;SDS011;36701;51.798;19.474;2023-04-24T12:28:35;4.75;;;2.90;;
50733;SDS011;36701;51.798;19.474;2023-04-24T12:31:02;3.30;;;2.90;;
50733;SDS011;36701;51.798;19.474;2023-04-24T12:33:31;10.93;;;3.40;;
50733;SDS011;36701;51.798;19.474;2023-04-24T12:35:57;3.20;;;2.90;;
50733;SDS011;36701;51.798;19.474;2023-04-24T12:38:25;10.07;;;3.58;;
50733;SDS011;36701;51.798;19.474;2023-04-24T12:41:04;7.32;;;2.70;;
50733;SDS011;36701;51.798;19.474;2023-04-24T12:43:31;3.20;;;2.40;;
50733;SDS011;36701;51.798;19.474;2023-04-24T12:45:57;6.00;;;2.60;;
50733;SDS011;36701;51.798;19.474;2023-04-24T12:48:23;4.53;;;3.05;;
50733;SDS011;36701;51.798;19.474;2023-04-24T12:50:49;5.82;;;2.80;;
50733;SDS011;36701;51.798;19.474;2023-04-24T12:53:16;6.82;;;2.60;;
50733;SDS011;36701;51.798;19.474;2023-04-24T12:55:41;8.55;;;3.08;;
50733;SDS011;36701;51.798;19.474;2023-04-24T12:58:08;7.78;;;2.70;;
50733;SDS011;36701;51.798;19.474;2023-04-24T13:00:34;6.30;;;2.90;;
50733;SDS011;36701;51.798;19.474;2023-04-24T13:03:00;9.82;;;3.60;;
50733;SDS011;36701;51.798;19.474;2023-04-24T13:05:27;3.05;;;2.80;;
50733;SDS011;36701;51.798;19.474;2023-04-24T13:07:53;10.10;;;2.60;;
50733;SDS011;36701;51.798;19.474;2023-04-24T13:10:19;2.33;;;2.22;;
50733;SDS011;36701;51.798;19.474;2023-04-24T13:12:46;4.18;;;2.25;;
50733;SDS011;36701;51.798;19.474;2023-04-24T13:15:12;2.95;;;2.62;;
50733;SDS011;36701;51.798;19.474;2023-04-24T13:17:38;4.18;;;2.87;;
50733;SDS011;36701;51.798;19.474;2023-04-24T13:20:05;14.10;;;2.78;;
50733;SDS011;36701;51.798;19.474;2023-04-24T13:22:31;7.72;;;2.67;;
50733;SDS011;36701;51.798;19.474;2023-04-24T13:24:57;4.78;;;2.83;;
50733;SDS011;36701;51.798;19.474;2023-04-24T13:27:24;4.85;;;3.78;;
50733;SDS011;36701;51.798;19.474;2023-04-24T13:29:50;3.58;;;2.22;;
50733;SDS011;36701;51.798;19.474;2023-04-24T13:32:17;5.35;;;2.62;;
50733;SDS011;36701;51.798;19.474;2023-04-24T13:34:43;2.80;;;2.58;;
50733;SDS011;36701;51.798;19.474;2023-04-24T13:37:09;12.93;;;2.35;;
50733;SDS011;36701;51.798;19.474;2023-04-24T13:39:35;11.07;;;3.60;;
50733;SDS011;36701;51.798;19.474;2023-04-24T13:42:02;5.47;;;2.70;;
50733;SDS011;36701;51.798;19.474;2023-04-24T13:44:28;12.15;;;3.58;;
50733;SDS011;36701;51.798;19.474;2023-04-24T13:46:55;5.60;;;3.40;;
50733;SDS011;36701;51.798;19.474;2023-04-24T13:49:23;12.40;;;3.08;;
50733;SDS011;36701;51.798;19.474;2023-04-24T13:51:51;4.85;;;2.78;;
50733;SDS011;36701;51.798;19.474;2023-04-24T13:54:17;5.85;;;3.00;;
50733;SDS011;36701;51.798;19.474;2023-04-24T13:56:51;9.43;;;2.92;;
50733;SDS011;36701;51.798;19.474;2023-04-24T13:59:17;4.97;;;2.90;;
50733;SDS011;36701;51.798;19.474;2023-04-24T14:01:45;4.78;;;3.30;;
50733;SDS011;36701;51.798;19.474;2023-04-24T14:04:12;9.30;;;2.85;;
50733;SDS011;36701;51.798;19.474;2023-04-24T14:06:38;11.98;;;3.25;;
50733;SDS011;36701;51.798;19.474;2023-04-24T14:09:05;10.25;;;4.22;;
50733;SDS011;36701;51.798;19.474;2023-04-24T14:11:32;8.05;;;2.70;;
50733;SDS011;36701;51.798;19.474;2023-04-24T14:13:59;4.97;;;3.40;;
50733;SDS011;36701;51.798;19.474;2023-04-24T14:16:26;4.95;;;2.90;;
50733;SDS011;36701;51.798;19.474;2023-04-24T14:18:52;5.55;;;3.33;;
50733;SDS011;36701;51.798;19.474;2023-04-24T14:21:20;3.80;;;2.78;;
50733;SDS011;36701;51.798;19.474;2023-04-24T14:23:46;7.85;;;3.28;;
50733;SDS011;36701;51.798;19.474;2023-04-24T14:26:13;3.83;;;3.03;;
50733;SDS011;36701;51.798;19.474;2023-04-24T14:28:39;9.48;;;2.83;;
50733;SDS011;36701;51.798;19.474;2023-04-24T14:31:07;12.82;;;3.35;;
50733;SDS011;36701;51.798;19.474;2023-04-24T14:33:34;8.60;;;3.05;;
50733;SDS011;36701;51.798;19.474;2023-04-24T14:36:01;11.82;;;4.10;;
50733;SDS011;36701;51.798;19.474;2023-04-24T14:38:28;4.12;;;2.72;;
50733;SDS011;36701;51.798;19.474;2023-04-24T14:40:56;10.23;;;3.03;;
50733;SDS011;36701;51.798;19.474;2023-04-24T14:43:22;10.80;;;3.12;;
50733;SDS011;36701;51.798;19.474;2023-04-24T14:45:49;4.15;;;3.08;;
50733;SDS011;36701;51.798;19.474;2023-04-24T14:48:15;8.48;;;3.85;;
50733;SDS011;36701;51.798;19.474;2023-04-24T14:50:43;15.55;;;2.78;;
50733;SDS011;36701;51.798;19.474;2023-04-24T14:53:10;6.50;;;3.00;;
50733;SDS011;36701;51.798;19.474;2023-04-24T14:55:37;3.78;;;3.22;;
50733;SDS011;36701;51.798;19.474;2023-04-24T14:58:04;9.15;;;3.75;;
50733;SDS011;36701;51.798;19.474;2023-04-24T15:00:30;9.65;;;3.45;;
50733;SDS011;36701;51.798;19.474;2023-04-24T15:02:56;7.18;;;3.33;;
50733;SDS011;36701;51.798;19.474;2023-04-24T15:05:22;17.05;;;4.57;;
50733;SDS011;36701;51.798;19.474;2023-04-24T15:07:56;7.53;;;3.42;;
50733;SDS011;36701;51.798;19.474;2023-04-24T15:10:22;12.00;;;3.37;;
50733;SDS011;36701;51.798;19.474;2023-04-24T15:12:49;4.62;;;3.08;;
50733;SDS011;36701;51.798;19.474;2023-04-24T15:15:15;7.68;;;3.33;;
50733;SDS011;36701;51.798;19.474;2023-04-24T15:17:42;6.18;;;3.12;;
50733;SDS011;36701;51.798;19.474;2023-04-24T15:20:08;6.62;;;3.15;;
50733;SDS011;36701;51.798;19.474;2023-04-24T15:22:34;3.87;;;2.97;;
50733;SDS011;36701;51.798;19.474;2023-04-24T15:25:01;6.62;;;3.25;;
50733;SDS011;36701;51.798;19.474;2023-04-24T15:27:38;3.40;;;3.10;;
50733;SDS011;36701;51.798;19.474;2023-04-24T15:30:05;4.70;;;2.90;;
50733;SDS011;36701;51.798;19.474;2023-04-24T15:32:31;12.55;;;3.50;;
50733;SDS011;36701;51.798;19.474;2023-04-24T15:34:57;4.55;;;2.78;;
50733;SDS011;36701;51.798;19.474;2023-04-24T15:37:24;3.55;;;2.50;;
50733;SDS011;36701;51.798;19.474;2023-04-24T15:39:51;11.57;;;3.60;;
50733;SDS011;36701;51.798;19.474;2023-04-24T15:42:17;8.45;;;3.67;;
50733;SDS011;36701;51.798;19.474;2023-04-24T15:44:44;7.72;;;3.25;;
50733;SDS011;36701;51.798;19.474;2023-04-24T15:47:10;9.10;;;3.78;;
50733;SDS011;36701;51.798;19.474;2023-04-24T15:49:43;6.78;;;3.55;;
50733;SDS011;36701;51.798;19.474;2023-04-24T15:52:09;5.90;;;3.60;;
50733;SDS011;36701;51.798;19.474;2023-04-24T15:54:36;5.00;;;3.37;;
50733;SDS011;36701;51.798;19.474;2023-04-24T15:57:04;4.95;;;3.62;;
50733;SDS011;36701;51.798;19.474;2023-04-24T15:59:30;4.03;;;3.45;;
50733;SDS011;36701;51.798;19.474;2023-04-24T16:01:56;8.52;;;3.92;;
50733;SDS011;36701;51.798;19.474;2023-04-24T16:04:22;8.10;;;3.22;;
50733;SDS011;36701;51.798;19.474;2023-04-24T16:06:49;7.68;;;4.30;;
50733;SDS011;36701;51.798;19.474;2023-04-24T16:09:15;6.55;;;3.58;;
50733;SDS011;36701;51.798;19.474;2023-04-24T16:11:41;6.45;;;3.45;;
50733;SDS011;36701;51.798;19.474;2023-04-24T16:14:07;6.22;;;3.55;;
50733;SDS011;36701;51.798;19.474;2023-04-24T16:16:34;8.48;;;4.05;;
50733;SDS011;36701;51.798;19.474;2023-04-24T16:19:00;3.50;;;3.17;;
50733;SDS011;36701;51.798;19.474;2023-04-24T16:21:26;3.95;;;3.25;;
50733;SDS011;36701;51.798;19.474;2023-04-24T16:23:53;8.30;;;4.37;;
50733;SDS011;36701;51.798;19.474;2023-04-24T16:26:19;11.82;;;4.50;;
50733;SDS011;36701;51.798;19.474;2023-04-24T16:28:46;6.50;;;3.30;;
50733;SDS011;36701;51.798;19.474;2023-04-24T16:31:17;10.73;;;4.10;;
50733;SDS011;36701;51.798;19.474;2023-04-24T16:33:43;17.05;;;3.80;;
50733;SDS011;36701;51.798;19.474;2023-04-24T16:36:09;9.88;;;3.85;;
50733;SDS011;36701;51.798;19.474;2023-04-24T16:38:36;7.32;;;3.92;;